Time;durP1;ratioP1;P1;durP2;ratioP2;P2;SDS_P1;SDS_P2;PMS_P1;PMS_P2;Temp;Humidity;BMP_temperature;BMP_pressure;BME280_temperature;BME280_humidity;BME280_pressure;Samples;Min_cycle;Max_cycle;Signal;HPM_P1;HPM_P2
2023/12/10 00:03:05;;;;;;;3.05;2.85;;;;;;;;;;10357327;28;20211;-75
2023/12/10 00:08:06;;;;;;;4.68;2.83;;;;;;;;;;10406874;28;20226;-74
2023/12/10 00:13:07;;;;;;;2.63;2.42;;;;;;;;;;10437178;28;20217;-75
2023/12/10 00:18:08;;;;;;;6.75;2.35;;;;;;;;;;10417505;28;20238;-74
2023/12/10 00:23:11;;;;;;;1.27;1.25;;;;;;;;;;10405350;28;20227;-74
2023/12/10 00:28:13;;;;;;;1.52;1.42;;;;;;;;;;10397136;28;20218;-75
2023/12/10 00:33:15;;;;;;;1.30;1.30;;;;;;;;;;10390156;28;20238;-74
2023/12/10 00:38:16;;;;;;;1.05;1.05;;;;;;;;;;10369457;28;20204;-75
2023/12/10 00:43:17;;;;;;;1.38;1.35;;;;;;;;;;10388982;28;20646;-74
2023/12/10 00:48:18;;;;;;;1.40;0.90;;;;;;;;;;10381292;28;20276;-74
2023/12/10 00:53:20;;;;;;;1.25;0.82;;;;;;;;;;10392091;28;20773;-75
2023/12/10 00:58:21;;;;;;;1.17;1.17;;;;;;;;;;10395745;28;20320;-74
2023/12/10 01:03:22;;;;;;;1.77;1.17;;;;;;;;;;10396747;28;20234;-74
2023/12/10 01:08:28;;;;;;;1.60;1.50;;;;;;;;;;10418373;28;20719;-73
2023/12/10 01:13:29;;;;;;;1.45;1.05;;;;;;;;;;10427328;28;20321;-74
2023/12/10 01:18:33;;;;;;;2.00;0.90;;;;;;;;;;10426873;28;20231;-75
2023/12/10 01:23:34;;;;;;;0.93;0.93;;;;;;;;;;10396442;28;20258;-73
2023/12/10 01:28:35;;;;;;;1.10;1.00;;;;;;;;;;10371607;28;20309;-75
2023/12/10 01:33:36;;;;;;;0.70;0.70;;;;;;;;;;10395421;28;20598;-74
2023/12/10 01:38:37;;;;;;;1.02;0.98;;;;;;;;;;10424375;28;20384;-74
2023/12/10 01:43:38;;;;;;;0.80;0.80;;;;;;;;;;10425737;28;20260;-74
2023/12/10 01:48:41;;;;;;;0.82;0.82;;;;;;;;;;10401930;28;20804;-74
2023/12/10 01:53:42;;;;;;;1.27;0.63;;;;;;;;;;10370625;28;20207;-73
2023/12/10 01:58:43;;;;;;;0.82;0.82;;;;;;;;;;10376039;28;20861;-74
2023/12/10 02:03:45;;;;;;;0.98;0.90;;;;;;;;;;10406266;28;20235;-74
2023/12/10 02:08:46;;;;;;;1.20;1.05;;;;;;;;;;10412982;28;20214;-74
2023/12/10 02:13:47;;;;;;;0.80;0.80;;;;;;;;;;10369413;28;21016;-74
2023/12/10 02:18:48;;;;;;;3.88;1.10;;;;;;;;;;10410541;28;20994;-75
2023/12/10 02:24:01;;;;;;;1.00;1.00;;;;;;;;;;10356346;28;20227;-74
2023/12/10 02:29:03;;;;;;;1.13;1.02;;;;;;;;;;10392544;28;20218;-74
2023/12/10 02:34:04;;;;;;;0.75;0.75;;;;;;;;;;10388065;28;20221;-74
2023/12/10 02:39:06;;;;;;;1.23;1.13;;;;;;;;;;10386457;28;20204;-74
2023/12/10 02:44:07;;;;;;;1.08;0.98;;;;;;;;;;10362549;28;20265;-75
2023/12/10 02:49:08;;;;;;;1.13;1.13;;;;;;;;;;10370790;28;20218;-73
2023/12/10 02:54:09;;;;;;;2.38;0.90;;;;;;;;;;10342091;28;20811;-74
2023/12/10 02:59:10;;;;;;;1.10;0.80;;;;;;;;;;10392882;28;20203;-74
2023/12/10 03:04:11;;;;;;;1.20;0.68;;;;;;;;;;10423509;28;20221;-74
2023/12/10 03:09:20;;;;;;;0.88;0.88;;;;;;;;;;10424246;28;20202;-76
2023/12/10 03:14:21;;;;;;;0.60;0.60;;;;;;;;;;10434741;28;20215;-75
2023/12/10 03:19:22;;;;;;;0.82;0.50;;;;;;;;;;10396154;28;20199;-76
2023/12/10 03:24:23;;;;;;;0.88;0.60;;;;;;;;;;10432876;28;20218;-74
2023/12/10 03:29:24;;;;;;;0.50;0.50;;;;;;;;;;10426468;28;20405;-74
2023/12/10 03:34:26;;;;;;;0.75;0.65;;;;;;;;;;10434470;28;20302;-74
2023/12/10 03:39:27;;;;;;;0.80;0.70;;;;;;;;;;10396717;28;20257;-75
2023/12/10 03:44:31;;;;;;;0.88;0.88;;;;;;;;;;10384352;28;20223;-74
2023/12/10 03:49:32;;;;;;;2.40;0.73;;;;;;;;;;10377117;28;20195;-75
2023/12/10 03:54:33;;;;;;;1.45;0.60;;;;;;;;;;10425846;28;20214;-75
2023/12/10 03:59:34;;;;;;;2.45;0.73;;;;;;;;;;10435908;28;20210;-75
2023/12/10 04:04:35;;;;;;;3.72;0.93;;;;;;;;;;10412208;28;20273;-75
2023/12/10 04:09:37;;;;;;;0.70;0.70;;;;;;;;;;10435519;28;20210;-74
2023/12/10 04:14:38;;;;;;;1.17;0.90;;;;;;;;;;10427928;28;20210;-74
2023/12/10 04:19:39;;;;;;;0.80;0.80;;;;;;;;;;10422298;28;20627;-74
2023/12/10 04:24:40;;;;;;;1.95;1.02;;;;;;;;;;10416103;28;20608;-74
2023/12/10 04:29:41;;;;;;;1.48;1.05;;;;;;;;;;10409139;28;20225;-74
2023/12/10 04:34:42;;;;;;;1.38;1.27;;;;;;;;;;10432261;28;21035;-75
2023/12/10 04:39:45;;;;;;;1.52;0.93;;;;;;;;;;10410145;28;20214;-76
2023/12/10 04:44:46;;;;;;;1.75;0.90;;;;;;;;;;10404074;28;20225;-76
2023/12/10 04:49:46;;;;;;;1.38;0.90;;;;;;;;;;10395159;28;20237;-75
2023/12/10 04:54:47;;;;;;;1.42;0.77;;;;;;;;;;10386265;28;20222;-75
2023/12/10 04:59:49;;;;;;;1.67;1.40;;;;;;;;;;10401681;28;20202;-75
2023/12/10 05:04:50;;;;;;;1.05;0.93;;;;;;;;;;10391938;28;20373;-75
2023/12/10 05:09:51;;;;;;;1.55;0.80;;;;;;;;;;10381688;28;20215;-75
2023/12/10 05:14:52;;;;;;;2.88;1.17;;;;;;;;;;10392442;28;20231;-74
2023/12/10 05:19:53;;;;;;;7.22;1.17;;;;;;;;;;10362013;28;20212;-74
2023/12/10 05:24:54;;;;;;;1.15;1.08;;;;;;;;;;10370934;28;20215;-75
2023/12/10 05:29:55;;;;;;;4.72;1.42;;;;;;;;;;10365562;28;20239;-75
2023/12/10 05:34:56;;;;;;;6.47;2.08;;;;;;;;;;10354780;28;20215;-75
2023/12/10 05:39:57;;;;;;;8.77;2.05;;;;;;;;;;10369565;28;20309;-74
2023/12/10 05:44:58;;;;;;;5.00;2.17;;;;;;;;;;10377620;28;20219;-74
2023/12/10 05:49:59;;;;;;;4.00;1.77;;;;;;;;;;10427554;28;20800;-74
2023/12/10 05:55:00;;;;;;;10.52;2.30;;;;;;;;;;10412204;28;20246;-74
2023/12/10 06:00:03;;;;;;;10.52;2.03;;;;;;;;;;10410750;28;20305;-77
2023/12/10 06:05:05;;;;;;;6.18;1.83;;;;;;;;;;10407258;28;20309;-79
2023/12/10 06:10:07;;;;;;;2.95;1.60;;;;;;;;;;10391723;28;20206;-75
2023/12/10 06:15:08;;;;;;;6.47;2.35;;;;;;;;;;10383405;28;20210;-78
2023/12/10 06:20:10;;;;;;;8.10;2.03;;;;;;;;;;10406583;28;20236;-75
2023/12/10 06:25:11;;;;;;;8.93;2.15;;;;;;;;;;10352531;28;20474;-74
2023/12/10 06:30:12;;;;;;;6.47;1.75;;;;;;;;;;10356142;28;20179;-76
2023/12/10 06:35:13;;;;;;;9.00;2.28;;;;;;;;;;10410559;28;20236;-76
2023/12/10 06:40:14;;;;;;;14.30;1.95;;;;;;;;;;10393000;28;20724;-77
2023/12/10 06:45:15;;;;;;;8.88;2.15;;;;;;;;;;10383654;28;20210;-76
2023/12/10 06:50:16;;;;;;;11.20;1.98;;;;;;;;;;10413208;28;20197;-76
2023/12/10 06:55:17;;;;;;;2.35;1.00;;;;;;;;;;10394592;28;20226;-76
2023/12/10 07:00:19;;;;;;;7.32;1.38;;;;;;;;;;10386187;28;20191;-75
2023/12/10 07:05:20;;;;;;;7.82;1.45;;;;;;;;;;10377332;28;20369;-76
2023/12/10 07:10:21;;;;;;;4.05;1.42;;;;;;;;;;10368642;28;20252;-75
2023/12/10 07:15:22;;;;;;;3.15;1.20;;;;;;;;;;10363040;28;20231;-75
2023/12/10 07:20:23;;;;;;;16.17;1.50;;;;;;;;;;10394577;28;20222;-75
2023/12/10 07:25:25;;;;;;;9.20;1.10;;;;;;;;;;10388749;28;20218;-77
2023/12/10 07:30:25;;;;;;;6.43;1.52;;;;;;;;;;10380258;28;20878;-76
2023/12/10 07:35:27;;;;;;;7.18;1.52;;;;;;;;;;10344390;28;20223;-76
2023/12/10 07:40:28;;;;;;;5.13;1.33;;;;;;;;;;10394725;28;20690;-78
2023/12/10 07:45:29;;;;;;;4.78;1.20;;;;;;;;;;10376983;28;21830;-74
2023/12/10 07:50:30;;;;;;;7.57;1.10;;;;;;;;;;10379998;28;20215;-73
2023/12/10 07:55:31;;;;;;;8.00;1.05;;;;;;;;;;10404798;28;20757;-74
2023/12/10 08:00:32;;;;;;;11.68;1.95;;;;;;;;;;10338733;28;20219;-74
2023/12/10 08:05:33;;;;;;;5.30;1.40;;;;;;;;;;10385112;28;20791;-76
2023/12/10 08:10:34;;;;;;;11.63;1.60;;;;;;;;;;10387976;28;20215;-76
2023/12/10 08:15:35;;;;;;;6.15;1.27;;;;;;;;;;10378142;28;20219;-75
2023/12/10 08:20:36;;;;;;;7.38;1.75;;;;;;;;;;10347213;28;20210;-75
2023/12/10 08:25:37;;;;;;;7.35;1.48;;;;;;;;;;10395896;28;20230;-75
2023/12/10 08:30:38;;;;;;;8.18;1.52;;;;;;;;;;10376206;28;20203;-74
2023/12/10 08:35:39;;;;;;;6.22;1.50;;;;;;;;;;10366942;28;20218;-75
2023/12/10 08:40:40;;;;;;;5.25;1.48;;;;;;;;;;10399000;28;21021;-75
2023/12/10 08:45:41;;;;;;;7.25;1.25;;;;;;;;;;10385690;28;20253;-76
2023/12/10 08:50:42;;;;;;;10.15;1.15;;;;;;;;;;10363117;28;20293;-76
2023/12/10 08:55:43;;;;;;;4.80;1.10;;;;;;;;;;10400134;28;20230;-77
2023/12/10 09:00:44;;;;;;;11.38;1.80;;;;;;;;;;10356394;28;20219;-76
2023/12/10 09:05:45;;;;;;;4.50;0.93;;;;;;;;;;10378176;28;22069;-76
2023/12/10 09:10:47;;;;;;;7.00;0.90;;;;;;;;;;10385676;28;20240;-76
2023/12/10 09:15:48;;;;;;;6.32;0.90;;;;;;;;;;10421218;28;20652;-78
2023/12/10 09:20:49;;;;;;;5.78;0.90;;;;;;;;;;10427272;28;20245;-78
2023/12/10 09:25:50;;;;;;;2.28;0.68;;;;;;;;;;10420506;28;20695;-77
2023/12/10 09:30:51;;;;;;;2.90;0.60;;;;;;;;;;10400154;28;20241;-77
2023/12/10 09:35:52;;;;;;;4.68;0.73;;;;;;;;;;10384258;28;20313;-76
2023/12/10 09:40:53;;;;;;;1.05;0.50;;;;;;;;;;10385871;28;20213;-77
2023/12/10 09:45:54;;;;;;;3.00;0.50;;;;;;;;;;10378013;28;20217;-75
2023/12/10 09:50:55;;;;;;;2.05;0.32;;;;;;;;;;10376658;28;20240;-77
2023/12/10 09:55:56;;;;;;;3.72;0.30;;;;;;;;;;10336987;28;20202;-75
2023/12/10 10:01:00;;;;;;;0.95;0.20;;;;;;;;;;10381221;28;20276;-76
2023/12/10 10:06:01;;;;;;;2.97;0.57;;;;;;;;;;10390381;28;20294;-77
2023/12/10 10:11:03;;;;;;;0.20;0.20;;;;;;;;;;10392548;28;20334;-76
2023/12/10 10:16:10;;;;;;;0.13;0.13;;;;;;;;;;10407831;28;20207;-78
2023/12/10 10:21:11;;;;;;;0.20;0.20;;;;;;;;;;10394516;28;20214;-76
2023/12/10 10:26:12;;;;;;;0.32;0.30;;;;;;;;;;10404911;28;20959;-76
2023/12/10 10:31:14;;;;;;;1.52;0.82;;;;;;;;;;10400479;28;20226;-77
2023/12/10 10:36:16;;;;;;;3.35;1.08;;;;;;;;;;10382202;28;20249;-75
2023/12/10 10:41:18;;;;;;;0.35;0.35;;;;;;;;;;10388405;28;20210;-76
2023/12/10 10:46:19;;;;;;;0.65;0.32;;;;;;;;;;10386762;28;20238;-76
2023/12/10 10:51:23;;;;;;;0.20;0.20;;;;;;;;;;10384902;28;20257;-76
2023/12/10 10:56:24;;;;;;;0.47;0.20;;;;;;;;;;10384746;28;20710;-76
2023/12/10 11:01:41;;;;;;;0.88;0.20;;;;;;;;;;10395814;28;20219;-76
2023/12/10 11:06:43;;;;;;;0.10;0.10;;;;;;;;;;10401638;28;20704;-76
2023/12/10 11:11:44;;;;;;;0.95;0.10;;;;;;;;;;10402707;28;20227;-76
2023/12/10 11:16:48;;;;;;;4.20;0.20;;;;;;;;;;10350607;28;20298;-76
2023/12/10 11:21:50;;;;;;;1.40;0.20;;;;;;;;;;10354695;28;20239;-76
2023/12/10 11:26:51;;;;;;;0.10;0.10;;;;;;;;;;10374146;28;20218;-77
2023/12/10 11:31:52;;;;;;;1.08;0.20;;;;;;;;;;10413355;28;20264;-76
2023/12/10 11:36:53;;;;;;;0.30;0.30;;;;;;;;;;10375590;28;20223;-75
2023/12/10 11:41:54;;;;;;;0.30;0.30;;;;;;;;;;10381494;28;20816;-76
2023/12/10 11:46:57;;;;;;;1.77;0.30;;;;;;;;;;10408807;28;20241;-76
2023/12/10 11:51:59;;;;;;;1.48;0.40;;;;;;;;;;10411994;28;20719;-75
2023/12/10 11:57:00;;;;;;;2.22;0.70;;;;;;;;;;10385370;28;20571;-76
2023/12/10 12:02:01;;;;;;;3.50;0.50;;;;;;;;;;10402688;28;20315;-76
2023/12/10 12:07:02;;;;;;;0.77;0.35;;;;;;;;;;10391260;28;20275;-76
2023/12/10 12:12:03;;;;;;;0.30;0.30;;;;;;;;;;10381199;28;20402;-76
2023/12/10 12:17:05;;;;;;;1.08;0.30;;;;;;;;;;10406949;28;20208;-77
2023/12/10 12:22:06;;;;;;;1.17;0.98;;;;;;;;;;10389501;28;21904;-76
2023/12/10 12:27:07;;;;;;;3.25;0.47;;;;;;;;;;10387948;28;20207;-76
2023/12/10 12:32:08;;;;;;;0.90;0.60;;;;;;;;;;10389767;28;20526;-77
2023/12/10 12:37:09;;;;;;;1.45;0.50;;;;;;;;;;10375295;28;24280;-76
2023/12/10 12:42:11;;;;;;;3.20;0.40;;;;;;;;;;10363471;28;20688;-77
2023/12/10 12:47:12;;;;;;;1.80;0.60;;;;;;;;;;10397999;28;20211;-76
2023/12/10 12:52:14;;;;;;;0.73;0.50;;;;;;;;;;10380782;28;20218;-76
2023/12/10 12:57:16;;;;;;;2.08;0.95;;;;;;;;;;10367853;28;20858;-75
2023/12/10 13:02:18;;;;;;;1.45;0.40;;;;;;;;;;10378598;28;20282;-76
2023/12/10 13:07:19;;;;;;;2.47;0.50;;;;;;;;;;10433742;28;20222;-76
2023/12/10 13:12:20;;;;;;;0.50;0.50;;;;;;;;;;10424721;28;20214;-76
2023/12/10 13:17:21;;;;;;;2.33;0.50;;;;;;;;;;10373143;28;20207;-76
2023/12/10 13:22:22;;;;;;;2.42;0.50;;;;;;;;;;10402167;28;20279;-77
2023/12/10 13:27:23;;;;;;;1.88;0.47;;;;;;;;;;10399073;28;20245;-76
2023/12/10 13:32:24;;;;;;;6.93;0.73;;;;;;;;;;10422360;28;20238;-77
2023/12/10 13:37:26;;;;;;;1.08;0.60;;;;;;;;;;10380380;28;20693;-75
2023/12/10 13:42:27;;;;;;;0.65;0.63;;;;;;;;;;10396423;28;20211;-77
2023/12/10 13:47:28;;;;;;;1.63;0.63;;;;;;;;;;10366276;28;20637;-77
2023/12/10 13:52:29;;;;;;;2.63;0.80;;;;;;;;;;10376305;28;20234;-76
2023/12/10 13:57:33;;;;;;;3.80;0.82;;;;;;;;;;10428255;28;20206;-76
2023/12/10 14:02:34;;;;;;;2.35;0.73;;;;;;;;;;10378423;28;20239;-76
2023/12/10 14:07:35;;;;;;;1.90;0.80;;;;;;;;;;10391202;28;20368;-76
2023/12/10 14:12:36;;;;;;;3.13;0.40;;;;;;;;;;10367833;28;20355;-78
2023/12/10 14:17:37;;;;;;;0.60;0.50;;;;;;;;;;10372982;28;20416;-77
2023/12/10 14:22:39;;;;;;;0.57;0.50;;;;;;;;;;10386534;28;20226;-77
2023/12/10 14:27:41;;;;;;;3.50;0.70;;;;;;;;;;10367742;28;20691;-76
2023/12/10 14:32:42;;;;;;;1.35;0.60;;;;;;;;;;10369738;28;20341;-77
2023/12/10 14:37:43;;;;;;;1.52;0.52;;;;;;;;;;10371923;28;20365;-77
2023/12/10 14:42:44;;;;;;;1.80;0.60;;;;;;;;;;10345670;28;21025;-74
2023/12/10 14:47:45;;;;;;;0.70;0.70;;;;;;;;;;10390733;28;20219;-76
2023/12/10 14:52:49;;;;;;;1.58;1.23;;;;;;;;;;10410831;28;20448;-75
2023/12/10 14:57:51;;;;;;;1.05;0.90;;;;;;;;;;10386603;28;20233;-77
2023/12/10 15:02:53;;;;;;;3.72;1.13;;;;;;;;;;10412240;28;20222;-77
2023/12/10 15:07:54;;;;;;;2.53;0.80;;;;;;;;;;10417787;28;20210;-77
2023/12/10 15:12:55;;;;;;;2.50;0.68;;;;;;;;;;10422746;28;20222;-77
2023/12/10 15:17:58;;;;;;;3.55;0.80;;;;;;;;;;10410621;28;20623;-79
2023/12/10 15:22:59;;;;;;;1.10;1.10;;;;;;;;;;10417980;28;20302;-78
2023/12/10 15:28:00;;;;;;;1.65;0.60;;;;;;;;;;10426383;28;20210;-79
2023/12/10 15:33:02;;;;;;;1.58;0.70;;;;;;;;;;10404309;28;20713;-78
2023/12/10 15:38:03;;;;;;;1.35;1.25;;;;;;;;;;10411135;28;20203;-77
2023/12/10 15:43:04;;;;;;;3.17;1.50;;;;;;;;;;10386067;28;20590;-78
2023/12/10 15:48:06;;;;;;;2.25;0.95;;;;;;;;;;10401254;28;20221;-78
2023/12/10 15:53:07;;;;;;;1.13;0.80;;;;;;;;;;10395201;28;20228;-78
2023/12/10 15:58:08;;;;;;;4.82;1.55;;;;;;;;;;10409636;28;20260;-77
2023/12/10 16:03:09;;;;;;;1.73;1.27;;;;;;;;;;10398289;28;20226;-76
2023/12/10 16:08:10;;;;;;;1.90;1.33;;;;;;;;;;10400503;28;20225;-76
2023/12/10 16:13:11;;;;;;;2.17;0.88;;;;;;;;;;10431384;28;20249;-77
2023/12/10 16:18:12;;;;;;;2.25;2.08;;;;;;;;;;10423828;28;20357;-76
2023/12/10 16:23:13;;;;;;;2.47;1.00;;;;;;;;;;10432180;28;20738;-77
2023/12/10 16:28:14;;;;;;;0.85;0.85;;;;;;;;;;10431394;28;20207;-76
2023/12/10 16:33:15;;;;;;;2.53;0.70;;;;;;;;;;10404488;28;20211;-76
2023/12/10 16:38:17;;;;;;;3.10;1.30;;;;;;;;;;10413850;28;20221;-76
2023/12/10 16:43:18;;;;;;;2.55;0.73;;;;;;;;;;10409017;28;20222;-75
2023/12/10 16:48:20;;;;;;;7.18;1.30;;;;;;;;;;10414822;28;20203;-76
2023/12/10 16:53:21;;;;;;;1.50;1.13;;;;;;;;;;10415574;28;20781;-76
2023/12/10 16:58:22;;;;;;;4.78;1.33;;;;;;;;;;10424365;28;20237;-76
2023/12/10 17:03:24;;;;;;;8.80;1.30;;;;;;;;;;10427165;28;20222;-76
2023/12/10 17:08:24;;;;;;;5.55;1.50;;;;;;;;;;10415086;28;20272;-75
2023/12/10 17:13:26;;;;;;;8.13;1.60;;;;;;;;;;10431481;28;20272;-76
2023/12/10 17:18:27;;;;;;;3.97;1.88;;;;;;;;;;10428792;28;20246;-76
2023/12/10 17:23:28;;;;;;;4.93;2.65;;;;;;;;;;10426297;28;20259;-76
2023/12/10 17:28:29;;;;;;;3.95;1.67;;;;;;;;;;10414674;28;20211;-76
2023/12/10 17:33:31;;;;;;;5.85;2.70;;;;;;;;;;10426429;28;20301;-76
2023/12/10 17:38:32;;;;;;;9.38;2.00;;;;;;;;;;10386807;28;20342;-76
2023/12/10 17:43:33;;;;;;;4.65;1.90;;;;;;;;;;10386848;28;20295;-76
2023/12/10 17:48:34;;;;;;;4.95;0.90;;;;;;;;;;10388885;28;20215;-76
2023/12/10 17:53:35;;;;;;;5.28;1.20;;;;;;;;;;10416354;28;20225;-77
2023/12/10 17:58:36;;;;;;;3.42;1.40;;;;;;;;;;10412477;28;20214;-78
2023/12/10 18:03:37;;;;;;;1.55;1.00;;;;;;;;;;10429377;28;20321;-77
2023/12/10 18:08:38;;;;;;;8.23;1.27;;;;;;;;;;10419781;28;20232;-77
2023/12/10 18:13:39;;;;;;;3.60;1.30;;;;;;;;;;10426853;28;20223;-78
2023/12/10 18:18:40;;;;;;;1.65;0.90;;;;;;;;;;10417162;28;20219;-76
2023/12/10 18:23:42;;;;;;;10.52;1.52;;;;;;;;;;10427019;28;20276;-76
2023/12/10 18:28:43;;;;;;;8.75;1.35;;;;;;;;;;10419984;28;20209;-75
2023/12/10 18:33:44;;;;;;;3.70;1.02;;;;;;;;;;10427636;28;20226;-76
2023/12/10 18:38:45;;;;;;;5.40;1.42;;;;;;;;;;10427032;28;20210;-76
2023/12/10 18:43:46;;;;;;;9.73;1.83;;;;;;;;;;10396737;28;20227;-76
2023/12/10 18:48:47;;;;;;;4.60;1.65;;;;;;;;;;10442349;28;20210;-76
2023/12/10 18:53:48;;;;;;;4.28;1.33;;;;;;;;;;10437097;28;20218;-76
2023/12/10 18:58:50;;;;;;;6.78;2.00;;;;;;;;;;10420969;28;20661;-77
2023/12/10 19:03:51;;;;;;;3.83;1.67;;;;;;;;;;10395163;28;20788;-76
2023/12/10 19:08:52;;;;;;;9.77;2.28;;;;;;;;;;10419636;28;20233;-76
2023/12/10 19:13:53;;;;;;;8.85;1.80;;;;;;;;;;10425952;28;20706;-77
2023/12/10 19:18:56;;;;;;;1.90;0.95;;;;;;;;;;10422514;28;20637;-77
2023/12/10 19:23:57;;;;;;;2.72;1.40;;;;;;;;;;10397518;28;20231;-77
2023/12/10 19:28:58;;;;;;;4.22;1.35;;;;;;;;;;10394571;28;20231;-76
2023/12/10 19:33:59;;;;;;;5.50;1.80;;;;;;;;;;10385551;28;20261;-78
2023/12/10 19:39:00;;;;;;;7.82;1.58;;;;;;;;;;10420552;28;20202;-76
2023/12/10 19:44:02;;;;;;;6.28;1.75;;;;;;;;;;10431705;28;20272;-78
2023/12/10 19:49:04;;;;;;;6.78;1.90;;;;;;;;;;10384028;28;20269;-76
2023/12/10 19:54:05;;;;;;;4.93;1.17;;;;;;;;;;10420089;28;20246;-76
2023/12/10 19:59:06;;;;;;;2.20;1.02;;;;;;;;;;10432580;28;20306;-76
2023/12/10 20:04:07;;;;;;;6.28;1.30;;;;;;;;;;10436679;28;20234;-77
2023/12/10 20:09:08;;;;;;;7.25;2.15;;;;;;;;;;10418575;28;20211;-77
2023/12/10 20:14:09;;;;;;;4.97;1.02;;;;;;;;;;10392359;28;20257;-77
2023/12/10 20:19:10;;;;;;;10.10;2.90;;;;;;;;;;10439082;28;20213;-77
2023/12/10 20:24:11;;;;;;;6.07;2.10;;;;;;;;;;10430170;28;20272;-77
2023/12/10 20:29:12;;;;;;;11.70;1.85;;;;;;;;;;10423932;28;20260;-77
2023/12/10 20:34:15;;;;;;;8.43;1.25;;;;;;;;;;10453192;28;20222;-77
2023/12/10 20:39:16;;;;;;;3.50;0.93;;;;;;;;;;10415085;28;20582;-78
2023/12/10 20:44:17;;;;;;;5.88;1.13;;;;;;;;;;10430980;28;20224;-76
2023/12/10 20:49:18;;;;;;;6.55;1.30;;;;;;;;;;10423689;28;20676;-77
2023/12/10 20:54:19;;;;;;;4.30;0.50;;;;;;;;;;10441106;28;20242;-77
2023/12/10 20:59:20;;;;;;;3.45;1.27;;;;;;;;;;10376959;28;20224;-75
2023/12/10 21:04:21;;;;;;;4.47;0.88;;;;;;;;;;10415796;28;20708;-75
2023/12/10 21:09:22;;;;;;;0.90;0.90;;;;;;;;;;10430256;28;20204;-76
2023/12/10 21:14:23;;;;;;;4.20;0.47;;;;;;;;;;10411018;28;20275;-76
2023/12/10 21:19:25;;;;;;;1.58;0.60;;;;;;;;;;10413429;28;20212;-78
2023/12/10 21:24:26;;;;;;;3.70;0.80;;;;;;;;;;10420093;28;20302;-78
2023/12/10 21:29:27;;;;;;;4.72;0.70;;;;;;;;;;10423171;28;20210;-76
2023/12/10 21:34:28;;;;;;;2.15;0.70;;;;;;;;;;10429149;28;20213;-77
2023/12/10 21:39:29;;;;;;;4.82;1.08;;;;;;;;;;10410648;28;20263;-77
2023/12/10 21:44:30;;;;;;;6.53;1.00;;;;;;;;;;10384532;28;20725;-76
2023/12/10 21:49:31;;;;;;;8.15;1.58;;;;;;;;;;10430706;28;20209;-77
2023/12/10 21:54:32;;;;;;;15.25;5.07;;;;;;;;;;10382935;28;20314;-77
2023/12/10 21:59:33;;;;;;;3.17;1.50;;;;;;;;;;10420877;28;20222;-77
2023/12/10 22:04:35;;;;;;;7.53;1.10;;;;;;;;;;10433551;28;20215;-77
2023/12/10 22:09:36;;;;;;;1.25;1.08;;;;;;;;;;10424591;28;20310;-77
2023/12/10 22:14:37;;;;;;;1.30;0.70;;;;;;;;;;10409032;28;20242;-77
2023/12/10 22:19:38;;;;;;;2.28;0.80;;;;;;;;;;10433742;28;20294;-77
2023/12/10 22:24:39;;;;;;;5.10;0.60;;;;;;;;;;10427457;28;20305;-75
2023/12/10 22:29:40;;;;;;;4.93;0.75;;;;;;;;;;10405218;28;21246;-75
2023/12/10 22:34:41;;;;;;;13.77;1.52;;;;;;;;;;10428411;28;20226;-75
2023/12/10 22:39:42;;;;;;;4.45;1.10;;;;;;;;;;10422234;28;20250;-76
2023/12/10 22:44:43;;;;;;;6.10;1.17;;;;;;;;;;10424238;28;20226;-74
2023/12/10 22:49:44;;;;;;;4.20;0.40;;;;;;;;;;10416010;28;20223;-76
2023/12/10 22:54:45;;;;;;;2.05;0.50;;;;;;;;;;10429246;28;20305;-75
2023/12/10 22:59:46;;;;;;;3.67;0.98;;;;;;;;;;10424796;28;20214;-75
2023/12/10 23:04:48;;;;;;;4.78;0.60;;;;;;;;;;10411257;28;20261;-75
2023/12/10 23:09:49;;;;;;;5.57;0.43;;;;;;;;;;10398634;28;20643;-75
2023/12/10 23:14:50;;;;;;;1.67;0.50;;;;;;;;;;10436929;28;20272;-75
2023/12/10 23:19:53;;;;;;;3.22;1.00;;;;;;;;;;10430432;28;20229;-75
2023/12/10 23:24:54;;;;;;;10.40;1.50;;;;;;;;;;10433794;28;20218;-76
2023/12/10 23:29:55;;;;;;;5.18;1.08;;;;;;;;;;10436000;28;20228;-76
2023/12/10 23:34:56;;;;;;;2.30;0.80;;;;;;;;;;10417119;28;20258;-76
2023/12/10 23:39:58;;;;;;;1.67;0.65;;;;;;;;;;10430966;28;20720;-75
2023/12/10 23:44:59;;;;;;;5.30;0.52;;;;;;;;;;10402568;28;20215;-76
2023/12/10 23:50:00;;;;;;;4.53;0.60;;;;;;;;;;10435213;28;20207;-75
2023/12/10 23:55:01;;;;;;;4.38;0.85;;;;;;;;;;10423751;28;20222;-77
